Belle Vernon, Ohio
Current Conditions -  °F | °C
As of 4:01 AM on Sunday 21 Dec 2014 (Local Time) from KMNN Reporting Station
Haze Haze  
Wind Chill: 28°   Ceiling: 2800
Heat Index: 28°   Visibility: 5mi
Dew Point: 23°   Wind: 3mph
Humidity: 81%   Direction: 240°WSW
Pressure: 30.29"   Gusts: NA
Location:  40.948°N, 83.1346°W
Report Text: KMNN 210901Z AUTO 24003KT 5SM HZ OVC028 M02/M05 A3029 RMK AO2 T10221050 TSNO
Loading
Personal Weather Stations






























Interactive Weather Map New forecast layout! Learn more

10-Day Weather Forecast

Advertisements
Track Severe Weather on mobile